Time;durP1;ratioP1;P1;durP2;ratioP2;P2;SDS_P1;SDS_P2;PMS_P1;PMS_P2;Temp;Humidity;BMP_temperature;BMP_pressure;BME280_temperature;BME280_humidity;BME280_pressure;Samples;Min_cycle;Max_cycle;Signal;HPM_P1;HPM_P2
2023/03/26 00:01:04;;;;;;;3.50;0.57;;;7.00;99.90;;;;;;4959626;28;20397;-83
2023/03/26 00:03:32;;;;;;;1.98;1.48;;;7.00;99.90;;;;;;4948958;28;20100;-83
2023/03/26 00:06:07;;;;;;;0.50;0.50;;;7.00;99.90;;;;;;4966066;28;20042;-83
2023/03/26 00:08:34;;;;;;;0.60;0.60;;;7.00;99.90;;;;;;4941918;28;20400;-83
2023/03/26 00:11:00;;;;;;;0.50;0.50;;;7.00;99.90;;;;;;4960163;28;20133;-83
2023/03/26 00:13:26;;;;;;;0.65;0.65;;;7.00;99.90;;;;;;4912893;28;20118;-84
2023/03/26 00:15:52;;;;;;;0.70;0.70;;;7.00;99.90;;;;;;4947310;28;20126;-83
2023/03/26 00:18:23;;;;;;;;;;;6.90;99.90;;;;;;4947329;28;20460;-83
2023/03/26 00:20:50;;;;;;;0.50;0.50;;;6.90;99.90;;;;;;4954105;28;19930;-82
2023/03/26 00:23:16;;;;;;;1.20;1.20;;;6.80;99.90;;;;;;4961080;28;20046;-83
2023/03/26 00:25:42;;;;;;;0.63;0.63;;;6.80;99.90;;;;;;4941066;28;20065;-83
2023/03/26 00:28:08;;;;;;;0.68;0.68;;;6.70;99.90;;;;;;4949306;28;20126;-83
2023/03/26 00:30:35;;;;;;;0.52;0.52;;;6.70;99.90;;;;;;4949840;28;20051;-84
2023/03/26 00:33:03;;;;;;;0.50;0.50;;;6.60;99.90;;;;;;4946983;28;20461;-84
2023/03/26 00:35:29;;;;;;;4.30;3.90;;;6.50;99.90;;;;;;4945176;28;20536;-86
2023/03/26 00:37:55;;;;;;;2.35;2.25;;;6.60;99.90;;;;;;4959782;28;20372;-86
2023/03/26 00:40:22;;;;;;;0.50;0.50;;;6.50;99.90;;;;;;4958334;28;20046;-84
2023/03/26 00:42:48;;;;;;;0.50;0.50;;;6.50;99.90;;;;;;4954769;28;20072;-87
2023/03/26 00:45:15;;;;;;;0.50;0.50;;;6.50;99.90;;;;;;4952982;28;20130;-85
2023/03/26 00:47:42;;;;;;;0.88;0.88;;;6.50;99.90;;;;;;4947563;28;20507;-87
2023/03/26 00:50:14;;;;;;;0.40;0.40;;;6.50;99.90;;;;;;4931123;28;20097;-85
2023/03/26 00:52:43;;;;;;;0.60;0.60;;;6.50;99.90;;;;;;4958788;28;20077;-86
2023/03/26 00:55:09;;;;;;;0.50;0.50;;;6.50;99.90;;;;;;4958883;28;20070;-86
2023/03/26 00:57:36;;;;;;;0.95;0.95;;;6.50;99.90;;;;;;4961507;28;20392;-86
2023/03/26 01:00:15;;;;;;;0.60;0.60;;;6.60;99.90;;;;;;4958936;28;20043;-84
2023/03/26 01:02:43;;;;;;;0.45;0.45;;;6.50;99.90;;;;;;4947872;28;20043;-85
2023/03/26 01:05:32;;;;;;;0.65;0.65;;;6.50;99.90;;;;;;4946227;28;20054;-86
2023/03/26 01:08:19;;;;;;;0.50;0.50;;;6.50;99.90;;;;;;4950611;28;20040;-88
2023/03/26 01:10:49;;;;;;;0.40;0.40;;;6.50;99.90;;;;;;4960676;28;20150;-89
2023/03/26 01:13:23;;;;;;;0.40;0.40;;;6.50;99.90;;;;;;4948903;28;20365;-87
2023/03/26 01:15:49;;;;;;;0.50;0.50;;;6.50;99.90;;;;;;4962880;28;20047;-86
2023/03/26 01:18:25;;;;;;;0.40;0.40;;;6.50;99.90;;;;;;4967598;28;20057;-87
2023/03/26 01:20:57;;;;;;;0.50;0.50;;;6.40;99.90;;;;;;4963544;28;20043;-86
2023/03/26 01:23:31;;;;;;;0.40;0.40;;;6.40;99.90;;;;;;4967099;28;20043;-88
2023/03/26 01:26:14;;;;;;;0.40;0.40;;;6.40;99.90;;;;;;4972682;28;20059;-87
2023/03/26 01:28:40;;;;;;;0.75;0.75;;;6.40;99.90;;;;;;4969248;28;20312;-85
2023/03/26 01:31:23;;;;;;;;;;;6.40;99.90;;;;;;4967672;28;20510;-85
2023/03/26 01:34:12;;;;;;;1.05;1.05;;;6.40;99.90;;;;;;4965468;28;19949;-87
2023/03/26 01:36:43;;;;;;;0.50;0.50;;;6.40;99.90;;;;;;4958279;28;20046;-88
2023/03/26 01:39:20;;;;;;;0.52;0.52;;;6.40;99.90;;;;;;4963551;28;20034;-88
2023/03/26 01:41:50;;;;;;;0.85;0.85;;;6.30;99.90;;;;;;4962435;28;20043;-87
2023/03/26 01:44:37;;;;;;;0.52;0.52;;;6.40;99.90;;;;;;4968976;28;20780;-89
2023/03/26 01:47:04;;;;;;;;;;;6.30;99.90;;;;;;4966339;28;20552;-88
2023/03/26 01:49:30;;;;;;;0.40;0.40;;;6.30;99.90;;;;;;4965708;28;19922;-87
2023/03/26 01:51:57;;;;;;;0.45;0.45;;;6.30;99.90;;;;;;4966147;28;20047;-85
2023/03/26 01:54:27;;;;;;;0.55;0.55;;;6.30;99.90;;;;;;4969255;28;20043;-86
2023/03/26 01:56:52;;;;;;;1.02;1.02;;;6.30;99.90;;;;;;4981514;28;20403;-86
2023/03/26 01:59:54;;;;;;;0.60;0.60;;;6.30;99.90;;;;;;4977939;28;20126;-86
2023/03/26 02:02:26;;;;;;;1.38;1.30;;;6.30;99.90;;;;;;4979754;28;20077;-84
2023/03/26 02:05:11;;;;;;;0.50;0.50;;;6.30;99.90;;;;;;4987801;28;20047;-88
2023/03/26 02:07:46;;;;;;;0.68;0.68;;;6.10;99.90;;;;;;4967600;28;20042;-86
2023/03/26 02:10:37;;;;;;;0.50;0.50;;;6.20;99.90;;;;;;4949918;28;20050;-85
2023/03/26 02:13:04;;;;;;;0.50;0.50;;;6.30;99.90;;;;;;4964166;28;20553;-87
2023/03/26 02:15:31;;;;;;;0.40;0.40;;;6.30;99.90;;;;;;4966692;28;20041;-89
2023/03/26 02:17:58;;;;;;;;;;;6.60;99.90;;;;;;4936795;28;20060;-87
2023/03/26 02:20:28;;;;;;;0.43;0.43;;;6.30;99.90;;;;;;4964774;28;19921;-87
2023/03/26 02:22:55;;;;;;;0.40;0.40;;;6.20;99.90;;;;;;4965960;28;20065;-88
2023/03/26 02:25:21;;;;;;;;;;;6.30;99.90;;;;;;4962099;28;20097;-86
2023/03/26 02:27:48;;;;;;;0.50;0.50;;;6.20;99.90;;;;;;4981255;28;20342;-86
2023/03/26 02:30:18;;;;;;;0.60;0.60;;;6.30;99.90;;;;;;4963284;28;20126;-88
2023/03/26 02:32:43;;;;;;;0.60;0.60;;;6.20;99.90;;;;;;4964644;28;20086;-85
2023/03/26 02:35:11;;;;;;;0.40;0.40;;;6.20;99.90;;;;;;4967311;28;20087;-85
2023/03/26 02:37:37;;;;;;;0.60;0.60;;;6.30;99.90;;;;;;4967415;28;20078;-89
2023/03/26 02:40:09;;;;;;;0.60;0.60;;;6.20;99.90;;;;;;4966746;28;20043;-86
2023/03/26 02:42:36;;;;;;;0.60;0.60;;;6.20;99.90;;;;;;4965790;28;20050;-87
2023/03/26 02:45:02;;;;;;;0.50;0.50;;;6.20;99.90;;;;;;4964462;28;20565;-88
2023/03/26 02:47:27;;;;;;;;;;;6.20;99.90;;;;;;4966880;28;20835;-89
2023/03/26 02:49:53;;;;;;;0.80;0.80;;;6.30;99.90;;;;;;4961183;28;19965;-86
2023/03/26 02:52:19;;;;;;;0.50;0.50;;;6.20;99.90;;;;;;4963123;28;20038;-88
2023/03/26 02:54:45;;;;;;;0.60;0.60;;;6.20;99.90;;;;;;4966217;28;20043;-86
2023/03/26 02:57:10;;;;;;;0.50;0.50;;;6.40;99.90;;;;;;4974453;28;20031;-86
2023/03/26 02:59:36;;;;;;;0.60;0.60;;;6.30;99.90;;;;;;4934587;28;20728;-84
2023/03/26 03:02:02;;;;;;;0.50;0.50;;;6.30;99.90;;;;;;4950780;28;20490;-88
2023/03/26 03:04:28;;;;;;;0.73;0.73;;;6.20;99.90;;;;;;4968461;28;20410;-86
2023/03/26 03:06:56;;;;;;;0.40;0.40;;;6.20;99.90;;;;;;5033895;28;20049;-84
2023/03/26 03:09:23;;;;;;;0.50;0.50;;;6.20;99.90;;;;;;4964031;28;20051;-86
2023/03/26 03:11:49;;;;;;;0.50;0.50;;;6.20;99.90;;;;;;4966780;28;20499;-84
2023/03/26 03:14:15;;;;;;;0.60;0.60;;;6.20;99.90;;;;;;4969037;28;20042;-86
2023/03/26 03:16:40;;;;;;;0.63;0.63;;;6.20;99.90;;;;;;4950731;28;20061;-85
2023/03/26 03:19:06;;;;;;;0.50;0.50;;;6.10;99.90;;;;;;4964739;28;20051;-86
2023/03/26 03:21:32;;;;;;;1.02;1.02;;;6.00;99.90;;;;;;4964201;28;20047;-86
2023/03/26 03:23:57;;;;;;;0.43;0.43;;;6.00;99.90;;;;;;5031871;28;20138;-86
2023/03/26 03:26:28;;;;;;;1.55;1.52;;;6.30;99.90;;;;;;4964165;28;20059;-86
2023/03/26 03:28:56;;;;;;;0.60;0.60;;;6.00;99.90;;;;;;4963972;28;20108;-86
2023/03/26 03:31:23;;;;;;;1.23;1.13;;;6.00;99.90;;;;;;4946682;28;20100;-85
2023/03/26 03:33:49;;;;;;;0.50;0.50;;;6.00;99.90;;;;;;4965844;28;20066;-86
2023/03/26 03:36:17;;;;;;;0.63;0.60;;;6.00;99.90;;;;;;4960285;28;20040;-88
2023/03/26 03:38:43;;;;;;;0.73;0.73;;;6.00;99.90;;;;;;4963729;28;20074;-88
2023/03/26 03:41:09;;;;;;;0.50;0.50;;;6.00;99.90;;;;;;4963179;28;20078;-84
2023/03/26 03:43:34;;;;;;;12.82;3.22;;;6.00;99.90;;;;;;4944398;28;20058;-88
2023/03/26 03:46:01;;;;;;;0.68;0.68;;;6.00;99.90;;;;;;4968813;28;20049;-86
2023/03/26 03:48:26;;;;;;;0.57;0.55;;;6.00;99.90;;;;;;4965335;28;20581;-86
2023/03/26 03:50:54;;;;;;;0.50;0.50;;;5.90;99.90;;;;;;4964104;28;20076;-86
2023/03/26 03:53:25;;;;;;;0.50;0.50;;;5.90;99.90;;;;;;4963779;28;20054;-84
2023/03/26 03:55:55;;;;;;;0.60;0.60;;;5.90;99.90;;;;;;4956864;28;20505;-86
2023/03/26 03:58:22;;;;;;;4.68;1.83;;;5.80;99.90;;;;;;4968340;28;20353;-86
2023/03/26 04:00:51;;;;;;;0.60;0.60;;;5.80;99.90;;;;;;4971808;28;20535;-89
2023/03/26 04:03:19;;;;;;;0.50;0.50;;;5.80;99.90;;;;;;4966308;28;20038;-85
2023/03/26 04:05:48;;;;;;;0.57;0.57;;;5.80;99.90;;;;;;4948511;28;20047;-85
2023/03/26 04:08:17;;;;;;;0.60;0.60;;;5.80;99.90;;;;;;4970645;28;20077;-84
2023/03/26 04:10:44;;;;;;;0.50;0.50;;;5.80;99.90;;;;;;4966853;28;20046;-88
2023/03/26 04:13:14;;;;;;;0.40;0.40;;;5.80;99.90;;;;;;4968178;28;20047;-86
2023/03/26 04:15:40;;;;;;;0.57;0.57;;;5.80;99.90;;;;;;4966513;28;20046;-87
2023/03/26 04:18:09;;;;;;;0.50;0.50;;;5.80;99.90;;;;;;4937072;28;20047;-89
2023/03/26 04:20:45;;;;;;;0.60;0.60;;;5.90;99.90;;;;;;4966576;28;20043;-85
2023/03/26 04:23:13;;;;;;;0.50;0.50;;;6.00;99.90;;;;;;4964530;28;20378;-87
2023/03/26 04:25:41;;;;;;;2.75;1.40;;;5.90;99.90;;;;;;4970677;28;20066;-86
2023/03/26 04:28:08;;;;;;;0.35;0.35;;;5.90;99.90;;;;;;4952434;28;20050;-87
2023/03/26 04:30:34;;;;;;;3.47;2.38;;;5.80;99.90;;;;;;4968131;28;20483;-86
2023/03/26 04:33:05;;;;;;;0.40;0.40;;;5.80;99.90;;;;;;4970231;28;20096;-85
2023/03/26 04:35:34;;;;;;;1.98;1.95;;;5.90;99.90;;;;;;4963101;28;20046;-86
2023/03/26 04:38:05;;;;;;;0.50;0.50;;;5.80;99.90;;;;;;4955591;28;20043;-87
2023/03/26 04:40:33;;;;;;;0.47;0.47;;;6.30;99.90;;;;;;4966924;28;20046;-86
2023/03/26 04:43:01;;;;;;;0.40;0.40;;;5.80;99.90;;;;;;4952644;28;20122;-89
2023/03/26 04:45:29;;;;;;;0.47;0.47;;;5.70;99.90;;;;;;4963397;28;20051;-90
2023/03/26 04:47:56;;;;;;;0.30;0.30;;;5.70;99.90;;;;;;4950976;28;20053;-86
2023/03/26 04:50:22;;;;;;;0.50;0.50;;;5.70;99.90;;;;;;4969628;28;20051;-86
2023/03/26 04:52:49;;;;;;;0.70;0.70;;;5.70;99.90;;;;;;4952325;28;20125;-89
2023/03/26 04:55:31;;;;;;;0.57;0.57;;;5.70;99.90;;;;;;4973188;28;20450;-88
2023/03/26 04:58:04;;;;;;;0.55;0.55;;;5.70;99.90;;;;;;4969032;28;20038;-87
2023/03/26 05:00:30;;;;;;;0.60;0.60;;;6.30;99.90;;;;;;4970356;28;20047;-87
2023/03/26 05:03:00;;;;;;;0.60;0.60;;;5.70;99.90;;;;;;4970797;28;20058;-87
2023/03/26 05:05:27;;;;;;;0.52;0.52;;;5.70;99.90;;;;;;4953215;28;20501;-86
2023/03/26 05:07:53;;;;;;;0.47;0.47;;;5.60;99.90;;;;;;4970994;28;20126;-87
2023/03/26 05:10:19;;;;;;;0.50;0.50;;;5.70;99.90;;;;;;4944496;28;20118;-88
2023/03/26 05:12:45;;;;;;;0.50;0.50;;;5.60;99.90;;;;;;4939179;28;20523;-86
2023/03/26 05:15:14;;;;;;;0.63;0.63;;;6.10;99.90;;;;;;4967708;28;20054;-85
2023/03/26 05:17:40;;;;;;;0.60;0.60;;;5.60;99.90;;;;;;4967788;28;20043;-85
2023/03/26 05:20:15;;;;;;;1.13;1.13;;;5.60;99.90;;;;;;4967543;28;20038;-87
2023/03/26 05:22:42;;;;;;;0.52;0.52;;;5.60;99.90;;;;;;4952343;28;20053;-87
2023/03/26 05:25:08;;;;;;;0.50;0.50;;;5.80;99.90;;;;;;4955757;28;20050;-86
2023/03/26 05:27:34;;;;;;;0.50;0.50;;;5.60;99.90;;;;;;4967887;28;20047;-87
2023/03/26 05:30:04;;;;;;;0.70;0.70;;;5.50;99.90;;;;;;4967397;28;20093;-87
2023/03/26 05:32:31;;;;;;;0.52;0.52;;;5.50;99.90;;;;;;4966018;28;20031;-87
2023/03/26 05:34:57;;;;;;;0.57;0.57;;;5.50;99.90;;;;;;5038878;28;20038;-86
2023/03/26 05:37:25;;;;;;;;;;;5.50;99.90;;;;;;4950230;28;20035;-86
2023/03/26 05:39:53;;;;;;;0.55;0.55;;;5.50;99.90;;;;;;4970788;28;20020;-86
2023/03/26 05:42:19;;;;;;;0.57;0.57;;;5.50;99.90;;;;;;4954668;28;20042;-88
2023/03/26 05:44:45;;;;;;;;;;;5.50;99.90;;;;;;4949659;28;20051;-88
2023/03/26 05:47:11;;;;;;;0.60;0.60;;;5.50;99.90;;;;;;4968254;28;19922;-87
2023/03/26 05:49:36;;;;;;;0.60;0.60;;;5.50;99.90;;;;;;4950819;28;20081;-88
2023/03/26 05:52:02;;;;;;;0.50;0.50;;;6.00;99.90;;;;;;4967902;28;20038;-89
2023/03/26 05:54:28;;;;;;;0.60;0.60;;;5.50;99.90;;;;;;4966910;28;20476;-87
2023/03/26 05:56:55;;;;;;;0.50;0.50;;;5.50;99.90;;;;;;4964336;28;20070;-86
2023/03/26 05:59:22;;;;;;;0.50;0.50;;;5.50;99.90;;;;;;5036803;28;20484;-85
2023/03/26 06:01:49;;;;;;;0.60;0.60;;;5.60;99.90;;;;;;4968473;28;20692;-88
2023/03/26 06:04:19;;;;;;;0.50;0.50;;;5.60;99.90;;;;;;4952861;28;20051;-86
2023/03/26 06:06:44;;;;;;;0.50;0.50;;;5.60;99.90;;;;;;4964458;28;20136;-88
2023/03/26 06:09:13;;;;;;;0.40;0.40;;;5.70;99.90;;;;;;4967399;28;20130;-87
2023/03/26 06:11:39;;;;;;;0.50;0.50;;;5.70;99.90;;;;;;4970304;28;20050;-85
2023/03/26 06:14:06;;;;;;;0.50;0.50;;;5.70;99.90;;;;;;4968838;28;20057;-86
2023/03/26 06:16:32;;;;;;;0.60;0.60;;;5.70;99.90;;;;;;4954310;28;20133;-87
2023/03/26 06:18:58;;;;;;;;;;;5.80;99.90;;;;;;4919558;28;20035;-86
2023/03/26 06:21:25;;;;;;;0.45;0.45;;;5.80;99.90;;;;;;4950748;28;19922;-86
2023/03/26 06:23:50;;;;;;;0.40;0.40;;;5.80;99.90;;;;;;4971543;28;20079;-85
2023/03/26 06:26:16;;;;;;;0.50;0.50;;;5.80;99.90;;;;;;4966704;28;20086;-85
2023/03/26 06:28:42;;;;;;;0.50;0.50;;;5.70;99.90;;;;;;4965124;28;20057;-87
2023/03/26 06:31:08;;;;;;;0.50;0.50;;;5.80;99.90;;;;;;4952750;28;20039;-85
2023/03/26 06:33:34;;;;;;;0.60;0.60;;;5.90;99.90;;;;;;4963002;28;20803;-85
2023/03/26 06:35:59;;;;;;;0.68;0.68;;;5.80;99.90;;;;;;4947113;28;20078;-85
2023/03/26 06:38:25;;;;;;;0.50;0.50;;;5.90;99.90;;;;;;4964742;28;20038;-86
2023/03/26 06:40:51;;;;;;;0.40;0.40;;;5.90;99.90;;;;;;4950003;28;20039;-83
2023/03/26 06:43:17;;;;;;;0.57;0.57;;;6.00;99.90;;;;;;5030722;28;20043;-85
2023/03/26 06:45:42;;;;;;;0.50;0.50;;;6.00;99.90;;;;;;4966994;28;20058;-83
2023/03/26 06:48:08;;;;;;;0.60;0.60;;;6.30;99.90;;;;;;4956208;28;20106;-85
2023/03/26 06:50:34;;;;;;;0.47;0.47;;;6.00;99.90;;;;;;4963978;28;20511;-85
2023/03/26 06:53:00;;;;;;;0.45;0.45;;;6.30;99.90;;;;;;4950692;28;20046;-85
2023/03/26 06:55:31;;;;;;;0.50;0.50;;;6.10;99.90;;;;;;4949057;28;20076;-86
2023/03/26 06:57:57;;;;;;;0.50;0.50;;;6.10;99.90;;;;;;4963957;28;20471;-85
2023/03/26 07:00:23;;;;;;;0.43;0.43;;;6.30;99.90;;;;;;4950261;28;20108;-86
2023/03/26 07:02:49;;;;;;;0.60;0.60;;;6.30;99.90;;;;;;4966720;28;20483;-85
2023/03/26 07:05:15;;;;;;;0.63;0.63;;;6.20;99.90;;;;;;4939641;28;20043;-85
2023/03/26 07:07:41;;;;;;;0.50;0.50;;;6.30;99.90;;;;;;4944629;28;20042;-85
2023/03/26 07:10:07;;;;;;;0.60;0.60;;;6.40;99.90;;;;;;4950768;28;20108;-86
2023/03/26 07:12:32;;;;;;;0.38;0.38;;;6.40;99.90;;;;;;4963601;28;20047;-85
2023/03/26 07:15:00;;;;;;;0.50;0.50;;;6.50;99.90;;;;;;4948278;28;20088;-85
2023/03/26 07:17:26;;;;;;;0.60;0.60;;;6.50;99.90;;;;;;4970044;28;20066;-86
2023/03/26 07:19:53;;;;;;;0.35;0.35;;;6.50;99.90;;;;;;4944430;28;20055;-85
2023/03/26 07:22:21;;;;;;;0.60;0.60;;;6.60;99.90;;;;;;4948638;28;20050;-86
2023/03/26 07:24:47;;;;;;;0.52;0.52;;;6.50;99.90;;;;;;4977201;28;20046;-85
2023/03/26 07:27:31;;;;;;;;;;;6.50;99.90;;;;;;4967245;28;20061;-86
2023/03/26 07:30:24;;;;;;;0.52;0.52;;;6.50;99.90;;;;;;4959316;28;20394;-83
2023/03/26 07:33:18;;;;;;;0.50;0.50;;;6.60;99.90;;;;;;4953372;28;20035;-87
2023/03/26 07:36:06;;;;;;;0.40;0.40;;;6.70;99.90;;;;;;4972065;28;20108;-87
2023/03/26 07:38:59;;;;;;;0.50;0.50;;;6.80;99.90;;;;;;4958962;28;20108;-85
2023/03/26 07:41:43;;;;;;;0.50;0.50;;;6.80;99.90;;;;;;4964957;28;20051;-86
2023/03/26 07:44:30;;;;;;;0.50;0.50;;;6.70;99.90;;;;;;4971556;28;20067;-87
2023/03/26 07:46:58;;;;;;;;;;;6.70;99.90;;;;;;4969574;28;20038;-85
2023/03/26 07:49:25;;;;;;;0.40;0.40;;;6.70;99.90;;;;;;4961541;28;19926;-84
2023/03/26 07:51:51;;;;;;;1.17;1.17;;;6.80;99.90;;;;;;4975931;28;20078;-83
2023/03/26 07:54:17;;;;;;;;;;;6.80;99.90;;;;;;4988369;28;20070;-85
2023/03/26 07:56:58;;;;;;;0.40;0.40;;;6.90;99.90;;;;;;4952392;28;20015;-85
2023/03/26 07:59:44;;;;;;;0.50;0.50;;;7.10;99.90;;;;;;4972993;28;20038;-84
2023/03/26 08:02:22;;;;;;;0.50;0.50;;;7.40;99.90;;;;;;4975918;28;20129;-84
2023/03/26 08:04:57;;;;;;;0.40;0.40;;;7.60;99.90;;;;;;4968838;28;20047;-85
2023/03/26 08:07:43;;;;;;;0.50;0.50;;;7.60;99.90;;;;;;4970998;28;20085;-85
2023/03/26 08:10:18;;;;;;;0.40;0.40;;;7.60;99.90;;;;;;5006347;28;20138;-85
2023/03/26 08:12:53;;;;;;;0.73;0.73;;;7.40;99.90;;;;;;4966370;28;20075;-83
2023/03/26 08:15:29;;;;;;;0.43;0.43;;;7.30;99.90;;;;;;4967641;28;20495;-84
2023/03/26 08:18:35;;;;;;;0.40;0.40;;;7.40;99.90;;;;;;4951812;28;20042;-85
2023/03/26 08:21:30;;;;;;;0.50;0.50;;;7.50;99.90;;;;;;4971410;28;20062;-84
2023/03/26 08:24:11;;;;;;;0.50;0.50;;;7.40;99.90;;;;;;4955058;28;20389;-84
2023/03/26 08:26:50;;;;;;;0.43;0.43;;;7.30;99.90;;;;;;4960835;28;20112;-84
2023/03/26 08:29:33;;;;;;;0.30;0.30;;;7.20;99.90;;;;;;4976981;28;20043;-84
2023/03/26 08:32:02;;;;;;;0.60;0.60;;;7.20;99.90;;;;;;4984143;28;20045;-84
2023/03/26 08:34:28;;;;;;;0.80;0.80;;;7.20;99.90;;;;;;4970951;28;20365;-83
2023/03/26 08:36:55;;;;;;;0.55;0.55;;;7.30;99.90;;;;;;4938978;28;20049;-82
2023/03/26 08:39:21;;;;;;;0.50;0.50;;;7.50;99.90;;;;;;4975157;28;20143;-82
2023/03/26 08:42:05;;;;;;;0.82;0.82;;;7.80;99.90;;;;;;4968234;28;20129;-82
2023/03/26 08:44:46;;;;;;;0.40;0.40;;;8.10;99.90;;;;;;4966705;28;20046;-82
2023/03/26 08:47:38;;;;;;;0.40;0.40;;;8.20;99.90;;;;;;4967374;28;20121;-82
2023/03/26 08:50:50;;;;;;;0.30;0.30;;;8.40;99.90;;;;;;4965312;28;20058;-83
2023/03/26 08:53:37;;;;;;;0.50;0.50;;;8.50;99.90;;;;;;4948685;28;20047;-82
2023/03/26 08:56:22;;;;;;;0.47;0.47;;;8.50;99.90;;;;;;4963864;28;20181;-82
2023/03/26 08:59:26;;;;;;;0.50;0.50;;;8.30;99.90;;;;;;4969565;28;20456;-83
2023/03/26 09:02:37;;;;;;;0.50;0.50;;;8.20;99.90;;;;;;4959748;28;20097;-82
2023/03/26 09:05:36;;;;;;;0.50;0.50;;;7.90;99.90;;;;;;4963074;28;20058;-81
2023/03/26 09:08:05;;;;;;;0.55;0.55;;;7.80;99.90;;;;;;4952305;28;20880;-81
2023/03/26 09:11:11;;;;;;;0.30;0.30;;;7.80;99.90;;;;;;4953811;28;20043;-82
2023/03/26 09:14:20;;;;;;;0.47;0.47;;;7.80;99.90;;;;;;4955420;28;20123;-81
2023/03/26 09:16:53;;;;;;;0.40;0.40;;;7.90;99.90;;;;;;4967482;28;20439;-82
2023/03/26 09:19:43;;;;;;;0.40;0.40;;;8.00;99.90;;;;;;4947956;28;20112;-82
2023/03/26 09:22:12;;;;;;;0.50;0.50;;;8.00;99.90;;;;;;4956908;28;20396;-82
2023/03/26 09:25:03;;;;;;;0.40;0.40;;;7.90;99.90;;;;;;4948921;28;20069;-81
2023/03/26 09:27:57;;;;;;;0.60;0.60;;;7.80;99.90;;;;;;4979066;28;20403;-82
2023/03/26 09:30:37;;;;;;;0.40;0.40;;;7.80;99.90;;;;;;4967210;28;20046;-81
2023/03/26 09:33:15;;;;;;;0.40;0.40;;;7.90;99.90;;;;;;4954625;28;20069;-82
2023/03/26 09:36:04;;;;;;;0.40;0.40;;;8.10;99.90;;;;;;4972122;28;20039;-82
2023/03/26 09:38:55;;;;;;;0.50;0.50;;;8.30;99.90;;;;;;4963259;28;20042;-82
2023/03/26 09:41:38;;;;;;;0.43;0.43;;;8.50;99.90;;;;;;4956018;28;20435;-83
2023/03/26 09:44:19;;;;;;;0.40;0.40;;;8.60;99.90;;;;;;4967565;28;20047;-83
2023/03/26 09:47:05;;;;;;;0.40;0.40;;;8.60;99.90;;;;;;4988248;28;20125;-82
2023/03/26 09:50:18;;;;;;;0.85;0.85;;;8.70;99.90;;;;;;4959634;28;20374;-82
2023/03/26 09:53:19;;;;;;;0.55;0.55;;;8.60;99.90;;;;;;4944975;28;20051;-82
2023/03/26 09:56:03;;;;;;;1.27;1.27;;;8.30;99.90;;;;;;4941999;28;20522;-82
2023/03/26 09:58:50;;;;;;;0.50;0.50;;;8.20;99.90;;;;;;4961700;28;20054;-83
2023/03/26 10:01:40;;;;;;;0.30;0.30;;;8.00;99.90;;;;;;4952775;28;20396;-84
2023/03/26 10:04:31;;;;;;;0.38;0.38;;;8.10;99.90;;;;;;4981592;28;20117;-82
2023/03/26 10:07:34;;;;;;;0.45;0.45;;;8.00;99.90;;;;;;4962193;28;20066;-81
2023/03/26 10:10:16;;;;;;;0.40;0.40;;;8.10;99.90;;;;;;4938554;28;20035;-82
2023/03/26 10:12:51;;;;;;;0.50;0.50;;;8.10;99.90;;;;;;4961911;28;20535;-83
2023/03/26 10:15:35;;;;;;;0.45;0.45;;;8.20;99.90;;;;;;4943154;28;20138;-82
2023/03/26 10:18:26;;;;;;;0.52;0.52;;;8.30;99.90;;;;;;4965980;28;20439;-83
2023/03/26 10:21:29;;;;;;;0.38;0.38;;;8.40;99.90;;;;;;4947398;28;20377;-82
2023/03/26 10:23:55;;;;;;;0.50;0.50;;;8.40;99.90;;;;;;4947777;28;20034;-82
2023/03/26 10:27:14;;;;;;;0.32;0.32;;;8.50;99.90;;;;;;4968198;28;20059;-82
2023/03/26 10:30:04;;;;;;;0.50;0.50;;;8.60;99.90;;;;;;4992668;28;20397;-81
2023/03/26 10:32:43;;;;;;;0.52;0.52;;;8.50;99.90;;;;;;4962813;28;20074;-83
2023/03/26 10:35:19;;;;;;;0.30;0.30;;;8.40;99.90;;;;;;4965838;28;20715;-82
2023/03/26 10:38:00;;;;;;;0.40;0.40;;;8.30;99.90;;;;;;4943987;28;20584;-80
2023/03/26 10:40:55;;;;;;;1.15;1.15;;;8.10;99.90;;;;;;4950011;28;20055;-82
2023/03/26 10:43:42;;;;;;;0.40;0.40;;;8.20;99.90;;;;;;4945259;28;20488;-82
2023/03/26 10:46:30;;;;;;;1.15;1.10;;;8.30;99.90;;;;;;4966790;28;20044;-82
2023/03/26 10:49:34;;;;;;;0.85;0.70;;;8.50;99.90;;;;;;4963473;28;20066;-82
2023/03/26 10:52:08;;;;;;;0.30;0.30;;;8.50;99.90;;;;;;4961463;28;20100;-81
2023/03/26 10:55:02;;;;;;;0.50;0.50;;;8.60;99.90;;;;;;4949164;28;20476;-81
2023/03/26 10:57:47;;;;;;;0.43;0.43;;;8.60;99.90;;;;;;4961690;28;20043;-81
2023/03/26 11:00:25;;;;;;;0.40;0.40;;;8.70;99.90;;;;;;4962697;28;20057;-82
2023/03/26 11:03:15;;;;;;;0.60;0.60;;;8.80;99.90;;;;;;4978412;28;20488;-82
2023/03/26 11:05:50;;;;;;;0.60;0.60;;;8.80;99.90;;;;;;4959811;28;20047;-82
2023/03/26 11:08:37;;;;;;;0.47;0.47;;;8.70;99.90;;;;;;4964271;28;20046;-83
2023/03/26 11:11:21;;;;;;;0.30;0.30;;;8.80;99.90;;;;;;4947422;28;20109;-82
2023/03/26 11:13:58;;;;;;;0.40;0.40;;;8.70;99.90;;;;;;4957798;28;20047;-83
2023/03/26 11:16:54;;;;;;;0.50;0.50;;;8.50;99.90;;;;;;4948347;28;20188;-81
2023/03/26 11:19:43;;;;;;;0.40;0.40;;;8.40;99.90;;;;;;4959840;28;20046;-81
2023/03/26 11:22:30;;;;;;;0.45;0.45;;;8.30;99.90;;;;;;4973325;28;20501;-82
2023/03/26 11:24:56;;;;;;;0.30;0.30;;;8.40;99.90;;;;;;4960732;28;20066;-81
2023/03/26 11:27:34;;;;;;;1.58;1.48;;;8.40;99.90;;;;;;4962028;28;20496;-82
2023/03/26 11:30:36;;;;;;;0.68;0.68;;;8.40;99.90;;;;;;4950273;28;20050;-83
2023/03/26 11:33:06;;;;;;;0.30;0.30;;;8.40;99.90;;;;;;4962610;28;20047;-81
2023/03/26 11:35:39;;;;;;;0.30;0.30;;;8.40;99.90;;;;;;4949094;28;20050;-83
2023/03/26 11:38:12;;;;;;;0.40;0.40;;;8.20;99.90;;;;;;4962733;28;20035;-82
2023/03/26 11:40:41;;;;;;;0.45;0.45;;;8.10;99.90;;;;;;4947393;28;20525;-83
2023/03/26 11:43:10;;;;;;;0.60;0.60;;;8.10;99.90;;;;;;4965020;28;20050;-82
2023/03/26 11:45:43;;;;;;;0.47;0.47;;;8.30;99.90;;;;;;4967261;28;20046;-81
2023/03/26 11:48:21;;;;;;;0.40;0.40;;;8.50;99.90;;;;;;4963498;28;20049;-82
2023/03/26 11:50:52;;;;;;;0.40;0.40;;;8.70;99.90;;;;;;4946338;28;20069;-81
2023/03/26 11:53:21;;;;;;;0.35;0.35;;;9.10;99.90;;;;;;4949920;28;20495;-82
2023/03/26 11:56:02;;;;;;;0.32;0.32;;;9.30;99.90;;;;;;4949299;28;20095;-83
2023/03/26 11:58:56;;;;;;;0.50;0.50;;;9.50;99.90;;;;;;4957091;28;20445;-82
2023/03/26 12:01:39;;;;;;;0.50;0.50;;;9.60;99.90;;;;;;4949722;28;20039;-82
2023/03/26 12:04:14;;;;;;;0.45;0.45;;;9.40;99.90;;;;;;4978441;28;20125;-83
2023/03/26 12:06:58;;;;;;;0.40;0.40;;;9.00;99.90;;;;;;4972391;28;20115;-82
2023/03/26 12:09:25;;;;;;;0.30;0.30;;;8.80;99.90;;;;;;4962649;28;20369;-83
2023/03/26 12:12:02;;;;;;;0.30;0.30;;;8.80;99.90;;;;;;4936840;28;20039;-82
2023/03/26 12:14:31;;;;;;;0.35;0.35;;;8.60;99.90;;;;;;4949657;28;20045;-82
2023/03/26 12:17:06;;;;;;;0.38;0.38;;;8.60;99.90;;;;;;4961269;28;20233;-83
2023/03/26 12:19:43;;;;;;;0.50;0.50;;;8.60;99.90;;;;;;4963211;28;20168;-83
2023/03/26 12:22:35;;;;;;;0.50;0.50;;;8.60;99.90;;;;;;4942074;28;20040;-82
2023/03/26 12:25:14;;;;;;;0.40;0.40;;;8.50;99.90;;;;;;4960946;28;20097;-82
2023/03/26 12:28:12;;;;;;;0.40;0.40;;;8.30;99.90;;;;;;4964687;28;20460;-82
2023/03/26 12:30:40;;;;;;;0.50;0.50;;;8.20;99.90;;;;;;4968787;28;20082;-82
2023/03/26 12:33:13;;;;;;;0.35;0.35;;;8.30;99.90;;;;;;4975748;28;20042;-82
2023/03/26 12:35:39;;;;;;;0.40;0.40;;;8.70;99.90;;;;;;4984493;28;20065;-82
2023/03/26 12:38:22;;;;;;;0.47;0.47;;;9.30;99.90;;;;;;4941742;28;20569;-83
2023/03/26 12:41:09;;;;;;;0.40;0.40;;;9.80;99.90;;;;;;4966567;28;20166;-83
2023/03/26 12:43:45;;;;;;;0.40;0.40;;;10.20;99.90;;;;;;4973524;28;20400;-82
2023/03/26 12:46:29;;;;;;;0.30;0.30;;;10.30;99.90;;;;;;4964625;28;20257;-83
2023/03/26 12:49:02;;;;;;;0.30;0.30;;;10.20;99.90;;;;;;4966907;28;20428;-82
2023/03/26 12:51:51;;;;;;;0.40;0.40;;;10.00;99.90;;;;;;4951413;28;20095;-82
2023/03/26 12:54:22;;;;;;;0.30;0.30;;;9.60;99.90;;;;;;4944604;28;20052;-82
2023/03/26 12:57:29;;;;;;;0.38;0.38;;;9.30;99.90;;;;;;4955834;28;20080;-82
2023/03/26 13:00:24;;;;;;;0.30;0.30;;;9.20;99.90;;;;;;4948488;28;20089;-82
2023/03/26 13:02:57;;;;;;;0.40;0.40;;;9.20;99.90;;;;;;4966751;28;20051;-83
2023/03/26 13:05:38;;;;;;;0.40;0.40;;;9.00;99.90;;;;;;4967419;28;20070;-82
2023/03/26 13:08:23;;;;;;;0.30;0.30;;;8.60;99.90;;;;;;4951337;28;20046;-81
2023/03/26 13:11:14;;;;;;;0.40;0.40;;;8.40;99.90;;;;;;4967906;28;20354;-82
2023/03/26 13:13:52;;;;;;;0.40;0.40;;;8.20;99.90;;;;;;4955188;28;20066;-83
2023/03/26 13:16:33;;;;;;;0.40;0.40;;;8.10;99.90;;;;;;4959670;28;20043;-83
2023/03/26 13:19:20;;;;;;;0.50;0.50;;;8.10;99.90;;;;;;4982912;28;20043;-81
2023/03/26 13:22:15;;;;;;;0.30;0.30;;;8.20;99.90;;;;;;4963234;28;20044;-83
2023/03/26 13:25:06;;;;;;;0.40;0.40;;;8.20;99.90;;;;;;4943188;28;20705;-82
2023/03/26 13:27:55;;;;;;;0.50;0.50;;;8.10;99.90;;;;;;4928333;28;20578;-82
2023/03/26 13:30:36;;;;;;;0.40;0.40;;;8.00;99.90;;;;;;4908486;28;20405;-83
2023/03/26 13:33:41;;;;;;;1.17;1.17;;;8.00;99.90;;;;;;4909119;29;20047;-81
2023/03/26 13:36:25;;;;;;;0.40;0.40;;;8.00;99.90;;;;;;4924366;28;20062;-83
2023/03/26 13:39:11;;;;;;;0.43;0.43;;;8.00;99.90;;;;;;4930502;28;20055;-83
2023/03/26 13:42:14;;;;;;;0.40;0.40;;;8.10;99.90;;;;;;4913281;29;20135;-82